Time;durP1;ratioP1;P1;durP2;ratioP2;P2;SDS_P1;SDS_P2;PMS_P1;PMS_P2;Temp;Humidity;BMP_temperature;BMP_pressure;BME280_temperature;BME280_humidity;BME280_pressure;Samples;Min_cycle;Max_cycle;Signal;HPM_P1;HPM_P2
2023/08/13 00:01:11;;;;;;;4.32;1.80;;;;;;;17.94;65.15;99823.22;4999362;28;20054;-60
2023/08/13 00:03:37;;;;;;;3.97;1.55;;;;;;;17.93;64.52;99818.06;5005191;28;20038;-59
2023/08/13 00:06:04;;;;;;;4.82;1.80;;;;;;;17.91;65.45;99818.13;5001008;28;20062;-61
2023/08/13 00:08:31;;;;;;;6.00;3.45;;;;;;;17.89;65.13;99811.19;4996008;28;20061;-62
2023/08/13 00:10:58;;;;;;;5.03;1.80;;;;;;;17.85;65.47;99813.09;4994873;28;20078;-63
2023/08/13 00:13:24;;;;;;;7.47;1.95;;;;;;;17.84;65.83;99816.63;4993531;28;20045;-61
2023/08/13 00:15:51;;;;;;;3.10;1.90;;;;;;;17.83;64.94;99814.91;5004076;28;20643;-61
2023/08/13 00:18:18;;;;;;;4.63;2.05;;;;;;;17.81;65.31;99814.13;5000198;28;20049;-63
2023/08/13 00:20:44;;;;;;;4.07;1.60;;;;;;;17.81;65.60;99816.72;4991819;28;20119;-63
2023/08/13 00:23:12;;;;;;;5.82;1.88;;;;;;;17.80;65.23;99815.03;4996657;28;20053;-62
2023/08/13 00:25:38;;;;;;;4.68;2.03;;;;;;;17.79;65.53;99819.41;5006664;28;20686;-61
2023/08/13 00:28:05;;;;;;;3.90;2.00;;;;;;;17.79;66.00;99819.41;5001282;28;20038;-60
2023/08/13 00:30:35;;;;;;;5.03;2.03;;;;;;;17.81;65.35;99811.50;5006738;28;20034;-59
2023/08/13 00:33:02;;;;;;;2.83;1.77;;;;;;;17.82;65.81;99810.56;5008326;28;20053;-63
2023/08/13 00:35:28;;;;;;;2.53;2.33;;;;;;;17.84;66.40;99816.63;5004911;28;20045;-62
2023/08/13 00:37:55;;;;;;;3.55;1.65;;;;;;;17.83;65.42;99813.13;5001262;28;20068;-61
2023/08/13 00:40:22;;;;;;;7.05;2.20;;;;;;;17.87;66.16;99816.53;5000609;28;20045;-59
2023/08/13 00:42:48;;;;;;;3.38;1.90;;;;;;;17.89;66.11;99822.53;4990208;28;20081;-59
2023/08/13 00:45:15;;;;;;;4.53;2.38;;;;;;;17.91;65.45;99817.25;4981730;28;20423;-60
2023/08/13 00:47:43;;;;;;;5.55;1.85;;;;;;;17.91;65.87;99818.13;4988822;28;20061;-61
2023/08/13 00:50:10;;;;;;;4.85;2.25;;;;;;;17.92;66.32;99813.72;4987115;28;20133;-62
2023/08/13 00:52:38;;;;;;;4.25;1.98;;;;;;;17.93;65.93;99810.19;4989895;28;20077;-63
2023/08/13 00:55:05;;;;;;;4.50;2.15;;;;;;;17.93;66.53;99811.03;4986602;28;20057;-62
2023/08/13 00:57:32;;;;;;;4.35;2.03;;;;;;;17.90;66.54;99811.13;4987533;28;20431;-62
2023/08/13 00:59:59;;;;;;;3.53;1.95;;;;;;;17.90;66.32;99805.91;4987355;28;20046;-59
2023/08/13 01:02:26;;;;;;;4.30;2.08;;;;;;;17.89;66.24;99804.19;4981736;28;20488;-62
2023/08/13 01:04:52;;;;;;;4.70;1.73;;;;;;;17.88;66.40;99789.41;5005751;28;20053;-59
2023/08/13 01:13:02;;;;;;;5.15;1.90;;;;;;;18.17;66.97;99803.19;5018577;28;20404;-62
2023/08/13 01:15:32;;;;;;;3.75;1.30;;;;;;;17.88;66.64;99799.88;4988689;28;20105;-60
2023/08/13 01:18:01;;;;;;;5.25;1.50;;;;;;;17.81;67.41;99798.41;4985439;28;20050;-61
2023/08/13 01:20:30;;;;;;;4.22;1.48;;;;;;;17.77;67.38;99800.28;4990053;28;20047;-63
2023/08/13 01:22:57;;;;;;;2.45;1.55;;;;;;;17.75;66.95;99801.22;4986396;28;20073;-61
2023/08/13 01:25:26;;;;;;;4.30;1.90;;;;;;;17.73;67.31;99799.53;4990878;28;20042;-62
2023/08/13 01:33:31;;;;;;;2.97;0.85;;;;;;;17.67;66.86;99804.97;5047134;27;20401;-61
2023/08/13 01:36:01;;;;;;;1.23;0.57;;;;;;;17.67;67.45;99807.59;5024425;28;20048;-63
2023/08/13 01:38:29;;;;;;;2.03;0.50;;;;;;;17.64;67.21;99802.50;5025713;28;20065;-61
2023/08/13 01:40:57;;;;;;;4.63;0.47;;;;;;;17.67;66.79;99804.97;5025911;28;20045;-61
2023/08/13 01:43:23;;;;;;;2.50;0.57;;;;;;;17.66;67.10;99808.50;5025499;28;20049;-61
2023/08/13 01:45:50;;;;;;;4.22;0.50;;;;;;;17.67;67.78;99806.75;5025885;28;20051;-60
2023/08/13 01:48:17;;;;;;;3.13;1.05;;;;;;;17.68;67.61;99801.47;5022995;28;20049;-63
2023/08/13 01:50:43;;;;;;;1.83;0.32;;;;;;;17.68;67.23;99805.84;5028956;28;20608;-61
2023/08/13 01:53:10;;;;;;;1.58;0.47;;;;;;;17.68;66.90;99801.47;5026280;28;20053;-62
2023/08/13 01:55:37;;;;;;;2.03;0.40;;;;;;;17.69;67.09;99800.56;5026259;28;20060;-61
2023/08/13 01:58:04;;;;;;;4.40;0.50;;;;;;;17.69;67.24;99797.94;5023660;28;20556;-64
2023/08/13 02:00:33;;;;;;;1.17;0.50;;;;;;;17.69;67.01;99794.44;5027789;28;20050;-61
2023/08/13 02:03:01;;;;;;;4.20;1.00;;;;;;;17.67;67.67;99802.34;5015828;28;20064;-60
2023/08/13 02:05:28;;;;;;;2.33;0.40;;;;;;;17.66;67.87;99803.28;5016970;28;20108;-61
2023/08/13 02:07:56;;;;;;;2.53;0.90;;;;;;;17.63;67.52;99792.91;5017779;28;20061;-62
2023/08/13 02:10:22;;;;;;;5.25;0.88;;;;;;;17.64;68.26;99797.25;5024664;28;20060;-63
2023/08/13 02:12:49;;;;;;;1.55;0.52;;;;;;;17.63;67.73;99792.91;5019971;28;20045;-61
2023/08/13 02:15:16;;;;;;;2.25;0.80;;;;;;;17.63;68.08;99782.44;5024443;28;20251;-61
2023/08/13 02:17:43;;;;;;;3.20;0.77;;;;;;;17.65;67.51;99793.72;5024717;28;20037;-63
2023/08/13 02:20:10;;;;;;;2.47;0.60;;;;;;;17.64;68.57;99789.41;5021030;28;20503;-60
2023/08/13 02:22:37;;;;;;;2.88;1.10;;;;;;;17.61;67.82;99789.50;5020559;28;20041;-61
2023/08/13 02:25:04;;;;;;;4.35;1.08;;;;;;;17.61;67.98;99784.28;5022491;28;20049;-61
2023/08/13 02:27:31;;;;;;;4.43;0.75;;;;;;;17.58;68.19;99784.38;5025809;28;20506;-60
2023/08/13 02:29:57;;;;;;;5.28;1.02;;;;;;;17.55;68.41;99781.88;5027634;28;20549;-61
2023/08/13 02:32:24;;;;;;;4.55;0.85;;;;;;;17.56;68.24;99780.97;5026870;28;20049;-61
2023/08/13 02:34:51;;;;;;;7.90;0.85;;;;;;;17.53;69.08;99778.47;5024867;28;20049;-61
2023/08/13 02:37:17;;;;;;;2.80;0.88;;;;;;;17.49;68.79;99764.59;5017818;28;20072;-61
2023/08/13 02:39:44;;;;;;;2.85;0.90;;;;;;;17.49;68.17;99771.63;5027320;28;20460;-61
2023/08/13 02:42:11;;;;;;;5.88;0.98;;;;;;;17.49;68.88;99775.09;5024872;28;20050;-62
2023/08/13 02:44:38;;;;;;;3.22;1.60;;;;;;;17.51;68.49;99767.19;5012213;28;20407;-62
2023/08/13 02:47:04;;;;;;;3.17;1.20;;;;;;;17.52;68.29;99768.88;5013374;28;20466;-63
2023/08/13 02:49:31;;;;;;;5.28;0.43;;;;;;;17.51;68.91;99772.41;5009396;28;20057;-61
2023/08/13 02:51:58;;;;;;;2.55;1.10;;;;;;;17.51;68.74;99775.91;5009280;28;20388;-63
2023/08/13 02:54:24;;;;;;;2.67;0.63;;;;;;;17.51;68.49;99782.88;5007182;28;20057;-63
2023/08/13 02:56:51;;;;;;;4.32;0.55;;;;;;;17.50;68.80;99778.56;5011021;28;20046;-59
2023/08/13 02:59:18;;;;;;;4.10;0.95;;;;;;;17.49;68.46;99775.09;5008289;28;20763;-61
2023/08/13 03:01:45;;;;;;;5.45;0.90;;;;;;;17.50;69.08;99778.56;5010175;28;20038;-62
2023/08/13 03:04:12;;;;;;;3.13;0.60;;;;;;;17.48;68.39;99783.84;5008769;28;20046;-62
2023/08/13 03:06:39;;;;;;;2.60;0.70;;;;;;;17.49;69.04;99775.09;5004628;28;20495;-61
2023/08/13 03:09:06;;;;;;;4.90;1.30;;;;;;;17.50;69.45;99776.81;5010109;28;20046;-63
2023/08/13 03:11:32;;;;;;;3.88;1.00;;;;;;;17.49;68.50;99774.25;5009817;28;20159;-59
2023/08/13 03:13:59;;;;;;;3.17;0.70;;;;;;;17.46;68.58;99770.81;5009858;28;20056;-61
2023/08/13 03:16:26;;;;;;;1.98;0.70;;;;;;;17.44;68.21;99772.66;5006768;28;20049;-62
2023/08/13 03:18:52;;;;;;;3.50;0.40;;;;;;;17.42;69.04;99774.47;5010505;28;20400;-62
2023/08/13 03:21:19;;;;;;;2.95;1.80;;;;;;;17.40;69.12;99783.28;5010383;28;20670;-59
2023/08/13 03:23:46;;;;;;;2.25;1.45;;;;;;;17.37;69.23;99767.69;5010091;28;20041;-63
2023/08/13 03:26:13;;;;;;;4.18;0.70;;;;;;;17.33;68.81;99780.03;5010230;28;20050;-62
2023/08/13 03:28:39;;;;;;;2.47;0.40;;;;;;;17.31;68.81;99777.47;5009877;28;20050;-62
2023/08/13 03:31:06;;;;;;;2.78;0.88;;;;;;;17.29;68.65;99774.03;5009912;28;20045;-59
2023/08/13 03:33:33;;;;;;;2.28;0.63;;;;;;;17.28;69.61;99777.56;5011273;28;20050;-60
2023/08/13 03:35:59;;;;;;;3.05;0.47;;;;;;;17.28;69.35;99774.09;5010293;28;20503;-63
2023/08/13 03:38:26;;;;;;;2.95;0.93;;;;;;;17.28;69.91;99782.81;5018455;28;20050;-63
2023/08/13 03:40:54;;;;;;;3.63;1.00;;;;;;;17.28;69.13;99782.81;5009737;28;20046;-61
2023/08/13 03:43:21;;;;;;;3.90;0.82;;;;;;;17.28;68.98;99787.16;5016458;28;20469;-63
2023/08/13 03:45:48;;;;;;;4.00;0.80;;;;;;;17.28;69.29;99787.16;5010196;28;20046;-61
2023/08/13 03:48:14;;;;;;;3.28;0.77;;;;;;;17.27;69.93;99785.47;5009617;28;20156;-62
2023/08/13 03:50:42;;;;;;;3.63;1.17;;;;;;;17.28;70.02;99789.78;5007416;28;20057;-62
2023/08/13 03:53:09;;;;;;;3.38;1.00;;;;;;;17.27;69.54;99775.00;5010992;28;20057;-62
2023/08/13 03:55:37;;;;;;;3.35;0.80;;;;;;;17.26;69.33;99778.53;5009059;28;20529;-61
2023/08/13 03:58:04;;;;;;;3.88;1.10;;;;;;;17.26;70.11;99778.53;5009605;28;20038;-62
2023/08/13 04:00:31;;;;;;;4.68;0.93;;;;;;;17.23;70.11;99776.03;5009142;28;20058;-62
2023/08/13 04:02:58;;;;;;;5.53;1.20;;;;;;;17.21;70.37;99773.44;5008796;28;20069;-62
2023/08/13 04:05:37;;;;;;;6.38;1.17;;;;;;;17.20;70.29;99769.97;5010025;28;20060;-60
2023/08/13 04:08:04;;;;;;;4.82;0.77;;;;;;;17.21;70.16;99776.06;5010981;28;20441;-62
2023/08/13 04:10:31;;;;;;;5.55;1.83;;;;;;;17.19;70.29;99770.88;5005283;28;20465;-63
2023/08/13 04:13:00;;;;;;;4.30;2.05;;;;;;;17.20;69.71;99771.75;5006350;28;20038;-61
2023/08/13 04:15:28;;;;;;;7.25;2.72;;;;;;;17.21;69.84;99763.84;5014422;28;20518;-62
2023/08/13 04:17:54;;;;;;;6.45;2.08;;;;;;;17.21;70.31;99776.94;5017206;28;20123;-61
2023/08/13 04:20:21;;;;;;;9.82;2.78;;;;;;;17.20;69.81;99769.97;5012369;28;20054;-62
2023/08/13 04:22:48;;;;;;;5.82;1.70;;;;;;;17.20;70.28;99775.19;5008603;28;20111;-63
2023/08/13 04:25:14;;;;;;;6.15;2.38;;;;;;;17.17;69.94;99764.88;5008366;28;20133;-63
2023/08/13 04:27:41;;;;;;;6.07;2.47;;;;;;;17.15;70.44;99766.66;5010248;28;20756;-63
2023/08/13 04:30:08;;;;;;;11.32;2.35;;;;;;;17.16;70.32;99763.13;5006523;28;20049;-60
2023/08/13 04:32:37;;;;;;;6.38;2.13;;;;;;;17.15;70.36;99760.56;5014964;28;20112;-62
2023/08/13 04:35:05;;;;;;;4.40;1.77;;;;;;;17.13;69.84;99758.03;5003827;28;20057;-63
2023/08/13 04:37:32;;;;;;;8.02;1.20;;;;;;;17.12;70.47;99756.31;5009055;28;20042;-63
2023/08/13 04:39:59;;;;;;;3.47;1.10;;;;;;;17.11;70.31;99762.44;5008828;28;20045;-63
2023/08/13 04:42:26;;;;;;;2.97;1.42;;;;;;;17.09;69.94;99766.88;5013255;28;20602;-63
2023/08/13 04:44:52;;;;;;;5.30;0.93;;;;;;;17.06;70.44;99762.59;5006413;28;20042;-62
2023/08/13 04:47:19;;;;;;;5.00;0.80;;;;;;;17.02;70.41;99766.19;5009717;28;20376;-62
2023/08/13 04:49:45;;;;;;;7.38;1.08;;;;;;;17.00;70.71;99767.16;5009190;28;20056;-61
2023/08/13 04:52:12;;;;;;;3.78;1.38;;;;;;;16.98;69.90;99769.00;5008518;28;20060;-61
2023/08/13 04:54:39;;;;;;;4.15;1.65;;;;;;;16.96;70.45;99769.88;5011036;28;20045;-63
2023/08/13 04:57:09;;;;;;;5.85;1.27;;;;;;;16.94;69.87;99763.84;5009738;28;20054;-61
2023/08/13 04:59:36;;;;;;;8.70;1.75;;;;;;;16.91;70.47;99756.09;5002716;28;20053;-61
2023/08/13 05:02:03;;;;;;;3.10;1.10;;;;;;;16.90;70.06;99770.09;5006200;28;20052;-62
2023/08/13 05:04:29;;;;;;;4.57;1.23;;;;;;;16.88;69.64;99757.97;5007328;28;20041;-62
2023/08/13 05:06:56;;;;;;;3.95;1.20;;;;;;;16.87;70.36;99762.34;5007771;28;20049;-63
2023/08/13 05:09:23;;;;;;;3.30;1.10;;;;;;;16.85;70.29;99761.53;5008472;28;20052;-61
2023/08/13 05:11:50;;;;;;;3.47;1.35;;;;;;;16.83;70.69;99764.19;5008752;28;20057;-62
2023/08/13 05:14:17;;;;;;;4.32;1.70;;;;;;;16.82;70.57;99765.13;5008249;28;20042;-63
2023/08/13 05:16:44;;;;;;;4.25;1.35;;;;;;;16.81;70.19;99767.78;5009693;28;20046;-61
2023/08/13 05:19:10;;;;;;;4.95;1.58;;;;;;;16.82;70.80;99764.28;5012081;28;20666;-63
2023/08/13 05:21:37;;;;;;;3.47;1.30;;;;;;;16.83;70.16;99765.97;5008896;28;20410;-61
2023/08/13 05:24:04;;;;;;;4.47;1.10;;;;;;;16.84;70.82;99762.44;5012374;28;20049;-64
2023/08/13 05:26:31;;;;;;;4.53;1.67;;;;;;;16.85;70.88;99758.91;5006564;28;20046;-60
2023/08/13 05:28:58;;;;;;;4.07;0.88;;;;;;;16.87;70.16;99766.72;5015486;28;20042;-62
2023/08/13 05:31:24;;;;;;;1.77;0.80;;;;;;;16.86;70.24;99758.03;5010753;28;20046;-64
2023/08/13 05:33:53;;;;;;;3.75;0.60;;;;;;;16.85;70.55;99764.16;5008111;28;20046;-61
2023/08/13 05:36:20;;;;;;;3.53;0.90;;;;;;;16.87;70.56;99770.19;5007174;28;20081;-60
2023/08/13 05:38:47;;;;;;;2.47;0.60;;;;;;;16.87;70.60;99770.19;5000268;28;20049;-64
2023/08/13 05:41:13;;;;;;;2.20;0.85;;;;;;;16.90;70.91;99772.72;5008252;28;20049;-61
2023/08/13 05:43:40;;;;;;;3.72;0.75;;;;;;;16.92;70.83;99767.44;5003579;28;20045;-62
2023/08/13 05:46:07;;;;;;;4.32;0.70;;;;;;;16.93;70.79;99777.81;5006664;28;20045;-61
2023/08/13 05:48:34;;;;;;;3.55;0.80;;;;;;;16.95;70.51;99775.16;5012458;28;20046;-63
2023/08/13 05:51:01;;;;;;;3.65;0.80;;;;;;;16.95;70.18;99770.78;5005772;28;20053;-63
2023/08/13 05:53:28;;;;;;;1.13;0.68;;;;;;;16.97;69.99;99773.34;5008095;28;20057;-63
2023/08/13 05:55:58;;;;;;;2.15;0.93;;;;;;;16.99;71.20;99776.75;5008296;28;20045;-63
2023/08/13 05:58:25;;;;;;;2.72;0.60;;;;;;;17.01;70.24;99780.19;5005922;28;20042;-61
2023/08/13 06:00:51;;;;;;;2.17;0.98;;;;;;;17.03;71.16;99785.38;5007248;28;20092;-64
2023/08/13 06:03:18;;;;;;;2.85;0.80;;;;;;;17.08;71.32;99788.72;5012597;28;20513;-61
2023/08/13 06:05:46;;;;;;;2.70;1.85;;;;;;;17.11;70.45;99783.38;5002431;28;20305;-63
2023/08/13 06:08:13;;;;;;;6.07;0.73;;;;;;;17.15;71.21;99776.28;5004426;28;20053;-63
2023/08/13 06:10:39;;;;;;;5.97;1.20;;;;;;;17.21;70.42;99782.16;5014077;28;20053;-61
2023/08/13 06:13:06;;;;;;;6.10;1.50;;;;;;;17.27;71.63;99788.09;5006220;28;20430;-60
2023/08/13 06:15:33;;;;;;;2.95;1.10;;;;;;;17.32;70.93;99783.53;5011068;28;20454;-61
2023/08/13 06:17:59;;;;;;;4.85;1.55;;;;;;;17.40;70.84;99788.50;5007955;28;20038;-63
2023/08/13 06:20:26;;;;;;;5.13;1.20;;;;;;;17.50;70.75;99789.03;5011333;28;20092;-61
2023/08/13 06:22:53;;;;;;;4.43;1.27;;;;;;;17.58;70.51;99790.47;5012281;28;20042;-63
2023/08/13 06:25:20;;;;;;;3.80;0.85;;;;;;;17.67;71.00;99789.25;5008015;28;20099;-62
2023/08/13 06:27:46;;;;;;;2.05;1.05;;;;;;;17.73;70.30;99789.06;5013584;28;20211;-61
2023/08/13 06:30:13;;;;;;;2.67;0.82;;;;;;;17.79;70.50;99793.22;5014456;28;20042;-63
2023/08/13 06:32:40;;;;;;;3.60;1.02;;;;;;;17.83;70.58;99783.47;5007530;28;20046;-61
2023/08/13 06:35:07;;;;;;;4.28;1.83;;;;;;;17.84;70.62;99786.03;5014501;28;20042;-60
2023/08/13 06:37:34;;;;;;;3.53;1.38;;;;;;;17.82;69.65;99787.00;5013610;28;20052;-63
2023/08/13 06:40:16;;;;;;;3.88;1.00;;;;;;;17.83;70.56;99780.84;5013540;28;20133;-62
2023/08/13 06:42:43;;;;;;;6.88;0.98;;;;;;;17.84;70.63;99779.94;5009822;28;20038;-62
2023/08/13 06:45:09;;;;;;;5.43;2.40;;;;;;;17.85;70.05;99782.53;5008845;28;20038;-63
2023/08/13 06:47:36;;;;;;;6.32;1.70;;;;;;;17.89;69.74;99777.13;5012194;28;20503;-61
2023/08/13 06:50:04;;;;;;;5.88;2.40;;;;;;;17.91;69.60;99780.56;5019439;28;20125;-61
2023/08/13 06:52:31;;;;;;;5.78;2.00;;;;;;;17.94;70.01;99781.28;5010273;28;20056;-61
2023/08/13 06:54:57;;;;;;;5.80;1.75;;;;;;;17.98;69.38;99788.16;5010671;28;20050;-63
2023/08/13 06:57:24;;;;;;;5.35;1.40;;;;;;;18.02;69.67;99790.63;5018315;28;20045;-62
2023/08/13 06:59:50;;;;;;;3.53;1.23;;;;;;;18.06;69.31;99789.59;5004697;28;20050;-62
2023/08/13 07:02:17;;;;;;;5.10;1.48;;;;;;;18.11;70.08;99792.94;5010474;28;20050;-62
2023/08/13 07:04:44;;;;;;;3.60;1.30;;;;;;;18.16;69.22;99790.13;5015393;28;20046;-63
2023/08/13 07:07:11;;;;;;;3.92;1.40;;;;;;;18.19;69.89;99796.13;5010161;28;20050;-63
2023/08/13 07:09:38;;;;;;;3.70;0.85;;;;;;;18.20;69.66;99787.34;5005086;28;20045;-62
2023/08/13 07:12:05;;;;;;;3.83;1.02;;;;;;;18.24;69.04;99794.19;5015762;28;20057;-61
2023/08/13 07:14:32;;;;;;;3.50;1.17;;;;;;;18.30;69.41;99792.25;5013125;28;20049;-60
2023/08/13 07:16:59;;;;;;;6.95;1.60;;;;;;;18.35;69.28;99790.28;5004249;28;20053;-62
2023/08/13 07:19:25;;;;;;;4.82;1.10;;;;;;;18.42;69.32;99797.00;5019117;28;20060;-61
2023/08/13 07:21:52;;;;;;;3.95;2.17;;;;;;;18.47;68.52;99796.78;5000430;28;20665;-61
2023/08/13 07:24:19;;;;;;;5.07;1.25;;;;;;;18.53;68.36;99798.31;5007530;28;20050;-62
2023/08/13 07:26:46;;;;;;;4.15;1.13;;;;;;;18.55;68.77;99796.50;5012353;28;20060;-62
2023/08/13 07:29:12;;;;;;;3.20;1.00;;;;;;;18.59;68.42;99800.72;5010631;28;20076;-63
2023/08/13 07:31:39;;;;;;;3.25;1.17;;;;;;;18.63;68.90;99794.44;5019434;28;20570;-63
2023/08/13 07:34:06;;;;;;;2.58;0.90;;;;;;;18.70;68.55;99795.88;5016829;28;20076;-61
2023/08/13 07:36:32;;;;;;;6.47;1.00;;;;;;;18.81;68.00;99784.94;5007789;28;20053;-62
2023/08/13 07:38:59;;;;;;;6.07;1.00;;;;;;;18.87;67.75;99791.72;5009778;28;20053;-62
2023/08/13 07:41:26;;;;;;;2.67;0.88;;;;;;;18.92;67.74;99792.38;5019454;28;20054;-61
2023/08/13 07:43:52;;;;;;;5.53;1.00;;;;;;;18.97;67.74;99798.28;5012842;28;20049;-61
2023/08/13 07:46:19;;;;;;;5.55;1.05;;;;;;;18.92;66.99;99800.25;5010438;28;20050;-61
2023/08/13 07:48:46;;;;;;;1.60;1.20;;;;;;;18.90;67.38;99802.09;5009405;28;20510;-62
2023/08/13 07:51:13;;;;;;;2.65;1.33;;;;;;;18.84;67.20;99802.31;5009316;28;20104;-61
2023/08/13 07:53:39;;;;;;;3.47;0.77;;;;;;;18.81;67.34;99799.84;5012441;28;20052;-61
2023/08/13 07:56:07;;;;;;;3.08;0.70;;;;;;;18.83;67.40;99798.88;5009682;28;20486;-62
2023/08/13 07:58:34;;;;;;;3.83;1.05;;;;;;;18.87;68.23;99804.81;5010385;28;20068;-62
2023/08/13 08:01:00;;;;;;;3.88;2.47;;;;;;;18.92;67.75;99805.50;5007242;28;20579;-61
2023/08/13 08:03:27;;;;;;;3.67;0.77;;;;;;;18.98;67.73;99799.97;5012028;28;20053;-62
2023/08/13 08:05:54;;;;;;;2.80;0.50;;;;;;;19.04;67.12;99792.78;5014979;28;20169;-62
2023/08/13 08:08:21;;;;;;;1.02;0.45;;;;;;;19.07;67.07;99795.28;5006010;28;20061;-63
2023/08/13 08:10:48;;;;;;;2.67;1.23;;;;;;;19.08;67.14;99794.41;5011096;28;20081;-60
2023/08/13 08:13:15;;;;;;;3.78;1.08;;;;;;;19.08;67.43;99802.28;5008920;28;20049;-62
2023/08/13 08:15:41;;;;;;;3.92;1.50;;;;;;;19.12;67.11;99801.22;5007192;28;20053;-60
2023/08/13 08:18:08;;;;;;;3.35;0.80;;;;;;;19.18;67.06;99800.94;5009005;28;20038;-58
2023/08/13 08:20:35;;;;;;;4.10;0.95;;;;;;;19.18;66.94;99795.69;5012823;28;20053;-61
2023/08/13 08:23:02;;;;;;;1.90;0.98;;;;;;;19.12;67.25;99799.44;5007432;28;20049;-62
2023/08/13 08:25:29;;;;;;;3.08;0.63;;;;;;;19.08;67.17;99794.41;5008170;28;20065;-63
2023/08/13 08:27:56;;;;;;;1.85;0.90;;;;;;;19.04;67.27;99796.25;5014545;28;20045;-63
2023/08/13 08:30:22;;;;;;;1.50;1.02;;;;;;;18.99;66.97;99796.44;5012164;28;20061;-62
2023/08/13 08:32:49;;;;;;;1.90;0.65;;;;;;;18.98;67.47;99794.75;5014246;28;20052;-61
2023/08/13 08:35:16;;;;;;;1.55;0.88;;;;;;;19.01;67.34;99794.63;5011375;28;20052;-60
2023/08/13 08:37:42;;;;;;;3.20;0.47;;;;;;;19.05;67.48;99795.31;5006587;28;20050;-60
2023/08/13 08:40:09;;;;;;;4.82;1.42;;;;;;;19.08;67.27;99789.16;5007385;28;20049;-63
2023/08/13 08:42:36;;;;;;;5.45;1.13;;;;;;;19.12;67.83;99795.97;5013116;28;20058;-62
2023/08/13 08:45:05;;;;;;;3.50;1.27;;;;;;;19.11;68.19;99794.25;5009187;28;20076;-62
2023/08/13 08:47:33;;;;;;;2.50;0.80;;;;;;;19.08;68.00;99789.16;5010995;28;20050;-63
2023/08/13 08:50:04;;;;;;;4.38;1.08;;;;;;;19.04;67.46;99793.63;5013169;28;20050;-62
2023/08/13 08:52:33;;;;;;;2.95;0.77;;;;;;;19.04;68.11;99792.78;5006925;28;20076;-61
2023/08/13 08:55:02;;;;;;;2.28;0.45;;;;;;;19.06;68.21;99793.56;5007489;28;20049;-62
2023/08/13 08:57:29;;;;;;;3.42;0.93;;;;;;;19.11;68.11;99789.00;5008950;28;20132;-61
2023/08/13 08:59:56;;;;;;;4.13;1.15;;;;;;;19.16;68.43;99787.03;5004932;28;20052;-60
2023/08/13 09:02:23;;;;;;;2.67;0.80;;;;;;;19.23;68.39;99793.75;5010401;28;20053;-59
2023/08/13 09:04:50;;;;;;;2.72;0.68;;;;;;;19.32;69.07;99796.88;5009700;28;20050;-62
2023/08/13 09:07:17;;;;;;;3.88;0.80;;;;;;;19.30;68.33;99793.47;5005717;28;20053;-61
2023/08/13 09:09:48;;;;;;;3.72;0.60;;;;;;;19.25;68.23;99786.63;5007735;28;20058;-61
2023/08/13 09:12:15;;;;;;;3.45;0.85;;;;;;;19.15;68.57;99785.31;5004503;28;20053;-61
2023/08/13 09:14:42;;;;;;;3.35;0.80;;;;;;;19.12;69.02;99786.31;5005440;28;20095;-60
2023/08/13 09:17:11;;;;;;;2.42;0.85;;;;;;;19.17;69.20;99780.88;5010368;28;20049;-60
2023/08/13 09:19:39;;;;;;;3.22;1.00;;;;;;;19.19;69.29;99786.91;5013942;28;20136;-59
2023/08/13 09:22:07;;;;;;;3.00;0.95;;;;;;;19.31;69.49;99774.16;5007833;28;20446;-60
2023/08/13 09:24:36;;;;;;;3.13;0.73;;;;;;;19.45;69.67;99776.19;5013476;28;20049;-60
2023/08/13 09:27:05;;;;;;;4.03;0.73;;;;;;;19.56;68.98;99775.72;5007705;28;20056;-60
2023/08/13 09:29:32;;;;;;;2.22;0.93;;;;;;;19.57;68.73;99778.28;5006005;28;20103;-60
2023/08/13 09:32:00;;;;;;;3.63;0.63;;;;;;;19.60;68.63;99785.16;5005850;28;20574;-63
2023/08/13 09:34:28;;;;;;;6.22;1.05;;;;;;;19.56;68.73;99778.34;5006754;28;20052;-61
2023/08/13 09:36:56;;;;;;;2.47;0.85;;;;;;;19.52;68.96;99783.72;5013198;28;20285;-60
2023/08/13 09:39:26;;;;;;;4.30;1.40;;;;;;;19.47;68.92;99774.34;5007158;28;20474;-61
2023/08/13 09:41:54;;;;;;;3.70;1.77;;;;;;;19.43;68.95;99770.16;5007972;28;20297;-61
2023/08/13 09:44:24;;;;;;;3.05;1.17;;;;;;;19.46;68.53;99773.50;5006333;28;20566;-60
2023/08/13 09:46:54;;;;;;;2.42;0.70;;;;;;;19.55;68.72;99777.47;5004355;28;20060;-61
2023/08/13 09:49:22;;;;;;;2.38;0.90;;;;;;;19.65;68.47;99777.91;5010640;28;20697;-61
2023/08/13 09:51:51;;;;;;;2.38;0.90;;;;;;;19.74;68.87;99772.25;5007331;28;20088;-60
2023/08/13 09:57:03;;;;;;;3.83;1.75;;;;;;;19.84;68.56;99763.94;5072012;27;20745;-61
2023/08/13 09:59:35;;;;;;;5.28;1.63;;;;;;;19.88;68.50;99768.13;5038964;28;20100;-58
2023/08/13 10:02:07;;;;;;;4.35;0.90;;;;;;;19.91;68.30;99766.22;5040523;28;20049;-59
2023/08/13 10:04:35;;;;;;;2.40;1.65;;;;;;;19.90;68.11;99766.31;5040686;28;20049;-59
2023/08/13 10:07:04;;;;;;;5.00;1.45;;;;;;;19.92;68.48;99767.06;5032373;28;20050;-60
2023/08/13 10:09:33;;;;;;;3.50;1.40;;;;;;;19.93;68.54;99766.16;5028970;28;20045;-59
2023/08/13 10:12:01;;;;;;;4.10;1.05;;;;;;;19.96;68.75;99770.41;5041140;28;20080;-62
2023/08/13 10:14:28;;;;;;;2.33;0.88;;;;;;;19.92;68.14;99769.69;5042613;28;20079;-61
2023/08/13 10:16:55;;;;;;;2.55;1.15;;;;;;;19.85;68.27;99766.50;5037563;28;20080;-60
2023/08/13 10:19:30;;;;;;;3.33;0.82;;;;;;;19.76;68.11;99770.41;5035936;28;20046;-56
2023/08/13 10:21:57;;;;;;;5.32;1.83;;;;;;;19.74;68.46;99771.41;5041254;28;20130;-62
2023/08/13 10:24:28;;;;;;;2.95;1.17;;;;;;;19.77;68.35;99777.38;5034679;28;20052;-58
2023/08/13 10:26:58;;;;;;;0.80;0.50;;;;;;;19.86;68.43;99764.75;5024924;28;20737;-55
2023/08/13 10:29:33;;;;;;;1.95;0.50;;;;;;;19.94;68.58;99770.50;5017491;28;20053;-57
2023/08/13 10:32:09;;;;;;;2.25;0.60;;;;;;;20.18;68.30;99775.53;5014031;28;20133;-59
2023/08/13 10:37:18;;;;;;;3.25;1.10;;;;;;;20.75;68.25;99764.06;5048544;27;20400;-60
2023/08/13 10:39:47;;;;;;;4.35;1.27;;;;;;;20.96;67.02;99756.03;5018514;28;20046;-62
2023/08/13 10:45:08;;;;;;;0.60;0.30;;;;;;;21.54;67.73;99772.34;5060462;28;20394;-60
2023/08/13 10:50:43;;;;;;;0.52;0.30;;;;;;;22.20;65.58;99768.88;5062319;28;20390;-60
2023/08/13 10:55:52;;;;;;;3.20;1.42;;;;;;;22.53;64.72;99765.22;5045529;28;20880;-60
2023/08/13 10:58:25;;;;;;;1.45;1.35;;;;;;;22.82;64.05;99760.09;5005512;28;20058;-62
2023/08/13 11:00:56;;;;;;;2.80;1.65;;;;;;;23.08;62.97;99767.41;4993655;28;20511;-63
2023/08/13 11:03:27;;;;;;;1.25;1.15;;;;;;;23.25;62.36;99766.38;4995789;28;20046;-61
2023/08/13 11:05:54;;;;;;;2.10;1.92;;;;;;;23.43;61.16;99763.59;5000328;28;20054;-60
2023/08/13 11:08:23;;;;;;;3.55;1.50;;;;;;;23.53;60.74;99763.88;5000714;28;20483;-63
2023/08/13 11:11:07;;;;;;;1.63;1.33;;;;;;;23.67;60.56;99761.22;5002266;28;20099;-62
2023/08/13 11:13:34;;;;;;;3.72;1.67;;;;;;;23.77;59.02;99766.78;5004111;28;20510;-64
2023/08/13 11:16:01;;;;;;;2.45;1.60;;;;;;;23.80;58.38;99769.25;5006016;28;20128;-62
2023/08/13 11:18:28;;;;;;;3.20;1.63;;;;;;;23.82;58.43;99772.66;5000806;28;20073;-63
2023/08/13 11:20:55;;;;;;;1.90;1.35;;;;;;;23.85;57.00;99764.50;4998607;28;20120;-64
2023/08/13 11:23:22;;;;;;;1.63;1.45;;;;;;;23.96;57.63;99771.78;5003700;28;20042;-61
2023/08/13 11:25:50;;;;;;;1.88;1.75;;;;;;;24.02;57.12;99770.53;5004142;28;20053;-63
2023/08/13 11:28:19;;;;;;;3.08;1.25;;;;;;;24.01;55.55;99771.44;5002497;28;20046;-63
2023/08/13 11:30:47;;;;;;;2.53;1.33;;;;;;;23.93;55.72;99768.44;5000043;28;20530;-62
2023/08/13 11:33:14;;;;;;;1.88;1.75;;;;;;;23.78;55.34;99784.38;5002454;28;20076;-63
2023/08/13 11:35:41;;;;;;;2.90;0.82;;;;;;;23.67;54.48;99778.91;5002709;28;20414;-63
2023/08/13 11:38:08;;;;;;;2.35;2.03;;;;;;;23.58;54.44;99767.91;5002488;28;20066;-64
2023/08/13 11:40:36;;;;;;;2.60;2.03;;;;;;;23.50;54.52;99778.13;5002265;28;20038;-61
2023/08/13 11:43:03;;;;;;;3.30;1.95;;;;;;;23.41;54.80;99781.34;4997573;28;20070;-63
2023/08/13 11:45:31;;;;;;;3.30;2.88;;;;;;;23.33;54.62;99787.03;5002222;28;20053;-61
2023/08/13 11:48:16;;;;;;;3.03;2.28;;;;;;;23.20;53.84;99779.88;5000180;28;20197;-63
2023/08/13 11:50:49;;;;;;;2.40;1.90;;;;;;;23.25;53.88;99771.69;4999502;28;20104;-65
2023/08/13 11:53:26;;;;;;;1.83;0.80;;;;;;;23.27;53.90;99780.34;5002171;28;20451;-61
2023/08/13 11:55:52;;;;;;;2.90;2.20;;;;;;;23.36;54.54;99777.19;5003142;28;20050;-62
2023/08/13 11:58:20;;;;;;;1.98;1.80;;;;;;;23.56;54.07;99780.41;5002438;28;20073;-64
2023/08/13 12:00:47;;;;;;;2.88;2.45;;;;;;;23.68;53.09;99777.94;5000205;28;20084;-63